createdAt,value
2016-04-22T00:00:38.866Z,0
2016-04-22T00:01:39.041Z,0
2016-04-22T00:02:39.091Z,0
2016-04-22T00:03:39.082Z,0
2016-04-22T00:04:39.089Z,0
2016-04-22T00:05:39.092Z,0
2016-04-22T00:06:39.142Z,0
2016-04-22T00:07:39.129Z,0
2016-04-22T00:08:39.147Z,0
2016-04-22T00:09:39.166Z,0
2016-04-22T00:10:39.169Z,0
2016-04-22T00:11:39.186Z,0
2016-04-22T00:12:39.142Z,0
2016-04-22T00:13:39.223Z,0
2016-04-22T00:14:39.242Z,0
2016-04-22T00:15:39.260Z,0
2016-04-22T00:16:39.278Z,0
2016-04-22T00:17:39.312Z,0
2016-04-22T00:18:39.284Z,0
2016-04-22T00:19:39.318Z,0
2016-04-22T00:20:39.321Z,0
2016-04-22T00:21:39.338Z,0
2016-04-22T00:22:39.372Z,0
2016-04-22T00:23:39.375Z,0
2016-04-22T00:24:39.394Z,0
2016-04-22T00:25:39.412Z,0
2016-04-22T00:26:39.274Z,0
2016-04-22T00:27:39.324Z,0
2016-04-22T00:28:39.451Z,0
2016-04-22T00:29:39.454Z,0
2016-04-22T00:30:39.473Z,0
2016-04-22T00:31:39.507Z,0
2016-04-22T00:32:39.493Z,0
2016-04-22T00:33:39.512Z,0
2016-04-22T00:34:39.373Z,0
2016-04-22T00:35:39.580Z,0
2016-04-22T00:36:39.568Z,0
2016-04-22T00:37:39.602Z,0
2016-04-22T00:38:39.574Z,0
2016-04-22T00:39:39.591Z,0
2016-04-22T00:40:39.610Z,0
2016-04-22T00:41:39.644Z,0
2016-04-22T00:42:39.505Z,0
2016-04-22T00:43:39.648Z,0
2016-04-22T00:44:39.668Z,0
2016-04-22T00:45:39.701Z,0
2016-04-22T00:46:39.720Z,0
2016-04-22T00:47:39.706Z,0
2016-04-22T00:48:39.740Z,0
2016-04-22T00:49:39.758Z,0
2016-04-22T00:50:39.746Z,0
2016-04-22T00:51:39.779Z,0
2016-04-22T00:52:39.798Z,0
2016-04-22T00:53:39.801Z,0
2016-04-22T00:54:39.804Z,0
2016-04-22T00:55:39.837Z,0
2016-04-22T00:56:39.839Z,0
2016-04-22T00:57:39.889Z,0
2016-04-22T00:58:39.861Z,0
2016-04-22T00:59:39.942Z,0
2016-04-22T01:00:40.007Z,0
2016-04-22T01:01:39.916Z,0
2016-04-22T01:02:39.918Z,0
2016-04-22T01:03:39.936Z,0
2016-04-22T01:04:39.955Z,0
2016-04-22T01:05:39.974Z,0
2016-04-22T01:06:40.007Z,0
2016-04-22T01:07:39.994Z,0
2016-04-22T01:08:40.013Z,0
2016-04-22T01:09:40.015Z,0
2016-04-22T01:10:40.034Z,0
2016-04-22T01:11:40.083Z,0
2016-04-22T01:12:39.961Z,0
2016-04-22T01:13:40.088Z,0
2016-04-22T01:14:40.138Z,0
2016-04-22T01:15:40.126Z,0
2016-04-22T01:16:40.112Z,0
2016-04-22T01:17:40.178Z,0
2016-04-22T01:18:40.149Z,0
2016-04-22T01:19:40.167Z,0
2016-04-22T01:20:40.201Z,0
2016-04-22T01:21:40.329Z,0
2016-04-22T01:22:40.207Z,0
2016-04-22T01:23:40.225Z,0
2016-04-22T01:24:40.087Z,0
2016-04-22T01:25:40.262Z,0
2016-04-22T01:26:40.264Z,0
2016-04-22T01:27:40.314Z,0
2016-04-22T01:28:40.301Z,0
2016-04-22T01:29:40.366Z,0
2016-04-22T01:30:40.322Z,0
2016-04-22T01:31:40.341Z,0
2016-04-22T01:32:40.358Z,0
2016-04-22T01:33:40.377Z,0
2016-04-22T01:34:40.380Z,0
2016-04-22T01:35:40.430Z,0
2016-04-22T01:36:40.400Z,0
2016-04-22T01:37:40.403Z,0
2016-04-22T01:38:40.438Z,0
2016-04-22T01:39:40.440Z,0
2016-04-22T01:40:40.474Z,0
2016-04-22T01:41:40.477Z,0
2016-04-22T01:42:40.621Z,0
2016-04-22T01:43:40.513Z,0
2016-04-22T01:44:40.516Z,0
2016-04-22T01:45:40.549Z,0
2016-04-22T01:46:40.552Z,0
2016-04-22T01:47:40.555Z,0
2016-04-22T01:48:40.590Z,0
2016-04-22T01:49:40.592Z,0
2016-04-22T01:50:40.626Z,0
2016-04-22T01:51:40.613Z,0
2016-04-22T01:52:40.647Z,0
2016-04-22T01:53:40.650Z,0
2016-04-22T01:54:40.653Z,0
2016-04-22T01:55:40.546Z,0
2016-04-22T01:56:40.689Z,0
2016-04-22T01:57:40.707Z,0
2016-04-22T01:58:40.709Z,0
2016-04-22T01:59:40.728Z,0
2016-04-22T02:00:40.747Z,0
2016-04-22T02:01:40.781Z,0
2016-04-22T02:02:40.799Z,0
2016-04-22T02:03:40.895Z,0
2016-04-22T02:04:40.836Z,0
2016-04-22T02:05:40.838Z,0
2016-04-22T02:06:40.841Z,0
2016-04-22T02:07:40.844Z,0
2016-04-22T02:08:40.878Z,0
2016-04-22T02:09:40.896Z,0
2016-04-22T02:10:40.899Z,0
2016-04-22T02:11:40.745Z,0
2016-04-22T02:12:40.919Z,0
2016-04-22T02:13:40.938Z,0
2016-04-22T02:14:40.957Z,0
2016-04-22T02:15:40.974Z,0
2016-04-22T02:16:40.977Z,0
2016-04-22T02:17:40.996Z,0
2016-04-22T02:18:41.013Z,0
2016-04-22T02:19:41.016Z,0
2016-04-22T02:20:41.035Z,0
2016-04-22T02:21:41.054Z,0
2016-04-22T02:22:41.056Z,0
2016-04-22T02:23:41.074Z,0
2016-04-22T02:24:41.108Z,0
2016-04-22T02:25:41.111Z,0
2016-04-22T02:26:41.114Z,0
2016-04-22T02:27:41.148Z,0
2016-04-22T02:28:41.150Z,0
2016-04-22T02:29:41.153Z,0
2016-04-22T02:30:41.187Z,0
2016-04-22T02:31:41.205Z,0
2016-04-22T02:32:41.208Z,0
2016-04-22T02:33:41.241Z,0
2016-04-22T02:34:41.119Z,0
2016-04-22T02:35:41.247Z,0
2016-04-22T02:36:41.281Z,0
2016-04-22T02:37:41.299Z,0
2016-04-22T02:38:41.302Z,0
2016-04-22T02:39:41.320Z,0
2016-04-22T02:40:41.338Z,0
2016-04-22T02:41:41.341Z,0
2016-04-22T02:42:41.360Z,0
2016-04-22T02:43:41.363Z,0
2016-04-22T02:44:41.380Z,0
2016-04-22T02:45:41.415Z,0
2016-04-22T02:46:40.651Z,0
2016-04-22T02:47:41.420Z,0
2016-04-22T02:48:41.454Z,0
2016-04-22T02:49:41.456Z,0
2016-04-22T02:50:41.474Z,0
2016-04-22T02:51:41.477Z,0
2016-04-22T02:52:41.496Z,0
2016-04-22T02:53:41.514Z,0
2016-04-22T02:54:41.548Z,0
2016-04-22T02:55:41.550Z,0
2016-04-22T02:56:41.554Z,0
2016-04-22T02:57:41.432Z,0
2016-04-22T02:58:41.589Z,0
2016-04-22T02:59:41.609Z,0
2016-04-22T03:00:41.626Z,0
2016-04-22T03:01:41.629Z,0
2016-04-22T03:02:41.664Z,0
2016-04-22T03:03:41.681Z,0
2016-04-22T03:04:41.684Z,0
2016-04-22T03:05:41.686Z,0
2016-04-22T03:06:41.705Z,0
2016-04-22T03:07:41.739Z,0
2016-04-22T03:08:41.726Z,0
2016-04-22T03:09:41.760Z,0
2016-04-22T03:10:41.763Z,0
2016-04-22T03:11:41.766Z,0
2016-04-22T03:12:41.769Z,0
2016-04-22T03:13:41.818Z,0
2016-04-22T03:14:41.821Z,0
2016-04-22T03:15:41.839Z,0
2016-04-22T03:16:41.841Z,0
2016-04-22T03:17:41.891Z,0
2016-04-22T03:18:41.879Z,0
2016-04-22T03:19:41.896Z,0
2016-04-22T03:20:41.884Z,0
2016-04-22T03:21:41.918Z,0
2016-04-22T03:22:41.935Z,0
2016-04-22T03:23:41.954Z,0
2016-04-22T03:24:41.988Z,0
2016-04-22T03:25:41.976Z,0
2016-04-22T03:26:41.994Z,0
2016-04-22T03:27:41.996Z,0
2016-04-22T03:28:42.015Z,0
2016-04-22T03:29:42.033Z,0
2016-04-22T03:30:42.051Z,0
2016-04-22T03:31:42.117Z,0
2016-04-22T03:32:42.087Z,0
2016-04-22T03:33:42.075Z,0
2016-04-22T03:34:42.108Z,0
2016-04-22T03:35:42.142Z,0
2016-04-22T03:36:42.130Z,0
2016-04-22T03:37:42.163Z,0
2016-04-22T03:38:42.183Z,0
2016-04-22T03:39:42.185Z,0
2016-04-22T03:40:42.188Z,0
2016-04-22T03:41:42.206Z,0
2016-04-22T03:42:42.239Z,0
2016-04-22T03:43:42.227Z,0
2016-04-22T03:44:42.261Z,0
2016-04-22T03:45:42.263Z,0
2016-04-22T03:46:42.157Z,0
2016-04-22T03:47:42.300Z,4
2016-04-22T03:48:42.302Z,4
2016-04-22T03:49:42.337Z,0
2016-04-22T03:50:42.339Z,0
2016-04-22T03:51:42.357Z,4
2016-04-22T03:52:42.376Z,0
2016-04-22T03:53:42.379Z,4
2016-04-22T03:54:42.382Z,4
2016-04-22T03:55:42.416Z,4
2016-04-22T03:56:42.418Z,4
2016-04-22T03:57:42.437Z,4
2016-04-22T03:58:42.423Z,4
2016-04-22T03:59:42.473Z,8
2016-04-22T04:00:42.460Z,8
2016-04-22T04:01:42.509Z,8
2016-04-22T04:02:42.481Z,8
2016-04-22T04:03:42.514Z,8
2016-04-22T04:04:42.533Z,12
2016-04-22T04:05:42.536Z,12
2016-04-22T04:06:42.538Z,12
2016-04-22T04:07:42.573Z,12
2016-04-22T04:08:42.591Z,16
2016-04-22T04:09:42.594Z,16
2016-04-22T04:10:42.612Z,20
2016-04-22T04:11:42.614Z,20
2016-04-22T04:12:42.633Z,24
2016-04-22T04:13:42.651Z,24
2016-04-22T04:14:42.669Z,28
2016-04-22T04:15:42.750Z,32
2016-04-22T04:16:42.705Z,32
2016-04-22T04:17:42.708Z,36
2016-04-22T04:18:42.758Z,40
2016-04-22T04:19:42.745Z,48
2016-04-22T04:20:42.748Z,48
2016-04-22T04:21:42.751Z,52
2016-04-22T04:22:42.815Z,52
2016-04-22T04:23:42.840Z,56
2016-04-22T04:24:42.899Z,60
2016-04-22T04:25:42.971Z,68
2016-04-22T04:26:42.997Z,72
2016-04-22T04:27:43.044Z,76
2016-04-22T04:28:43.092Z,80
2016-04-22T04:29:43.110Z,84
2016-04-22T04:30:43.142Z,100
2016-04-22T04:31:43.174Z,100
2016-04-22T04:32:43.187Z,108
2016-04-22T04:33:43.195Z,112
2016-04-22T04:34:43.375Z,120
2016-04-22T04:35:43.242Z,128
2016-04-22T04:36:43.297Z,132
2016-04-22T04:37:43.287Z,140
2016-04-22T04:38:43.307Z,144
2016-04-22T04:39:43.328Z,152
2016-04-22T04:40:43.332Z,160
2016-04-22T04:41:43.478Z,168
2016-04-22T04:42:43.357Z,172
2016-04-22T04:43:43.235Z,180
2016-04-22T04:44:43.378Z,180
2016-04-22T04:45:43.397Z,188
2016-04-22T04:46:43.431Z,196
2016-04-22T04:47:43.434Z,200
2016-04-22T04:48:43.454Z,204
2016-04-22T04:49:43.457Z,212
2016-04-22T04:50:43.507Z,212
2016-04-22T04:51:43.510Z,216
2016-04-22T04:52:43.513Z,216
2016-04-22T04:53:43.531Z,220
2016-04-22T04:54:43.533Z,224
2016-04-22T04:55:43.536Z,232
2016-04-22T04:56:43.554Z,240
2016-04-22T04:57:43.588Z,252
2016-04-22T04:58:43.451Z,260
2016-04-22T04:59:43.593Z,268
2016-04-22T05:00:43.596Z,276
2016-04-22T05:01:43.630Z,288
2016-04-22T05:02:43.648Z,300
2016-04-22T05:03:43.807Z,308
2016-04-22T05:04:43.670Z,324
2016-04-22T05:05:43.704Z,344
2016-04-22T05:06:43.723Z,356
2016-04-22T05:07:43.709Z,364
2016-04-22T05:08:43.774Z,372
2016-04-22T05:09:43.731Z,376
2016-04-22T05:10:43.749Z,384
2016-04-22T05:11:43.768Z,388
2016-04-22T05:12:43.801Z,396
2016-04-22T05:13:43.663Z,400
2016-04-22T05:14:43.823Z,404
2016-04-22T05:15:43.873Z,404
2016-04-22T05:16:43.828Z,408
2016-04-22T05:17:43.862Z,412
2016-04-22T05:18:43.865Z,416
2016-04-22T05:19:43.868Z,420
2016-04-22T05:20:43.901Z,428
2016-04-22T05:21:43.920Z,444
2016-04-22T05:22:43.938Z,464
2016-04-22T05:23:43.972Z,476
2016-04-22T05:24:43.943Z,480
2016-04-22T05:25:43.961Z,480
2016-04-22T05:26:43.995Z,492
2016-04-22T05:27:43.998Z,500
2016-04-22T05:28:44.017Z,516
2016-04-22T05:29:44.019Z,564
2016-04-22T05:30:44.022Z,624
2016-04-22T05:31:44.041Z,596
2016-04-22T05:32:44.058Z,620
2016-04-22T05:33:44.092Z,684
2016-04-22T05:34:44.080Z,728
2016-04-22T05:35:44.144Z,804
2016-04-22T05:36:44.116Z,920
2016-04-22T05:37:44.166Z,1024
2016-04-22T05:38:44.169Z,1144
2016-04-22T05:39:44.156Z,1588
2016-04-22T05:40:44.173Z,2460
2016-04-22T05:41:44.193Z,2488
2016-04-22T05:42:44.210Z,6924
2016-04-22T05:43:44.073Z,19136
2016-04-22T05:44:44.232Z,34912
2016-04-22T05:45:44.249Z,31616
2016-04-22T05:46:44.268Z,16416
2016-04-22T05:47:44.287Z,4484
2016-04-22T05:48:44.304Z,2788
2016-04-22T05:49:44.307Z,1644
2016-04-22T05:50:44.372Z,2012
2016-04-22T05:51:44.344Z,5044
2016-04-22T05:52:44.347Z,4284
2016-04-22T05:53:44.395Z,2424
2016-04-22T05:54:44.383Z,2028
2016-04-22T05:55:44.417Z,2348
2016-04-22T05:56:44.436Z,1464
2016-04-22T05:57:44.422Z,1324
2016-04-22T05:58:44.473Z,1384
2016-04-22T05:59:44.459Z,1476
2016-04-22T06:00:44.478Z,1364
2016-04-22T06:01:44.496Z,1228
2016-04-22T06:02:44.514Z,1212
2016-04-22T06:03:44.533Z,1220
2016-04-22T06:04:44.551Z,1244
2016-04-22T06:05:44.553Z,1488
2016-04-22T06:06:44.760Z,2228
2016-04-22T06:07:44.591Z,1976
2016-04-22T06:08:44.609Z,1928
2016-04-22T06:09:44.485Z,2080
2016-04-22T06:10:44.645Z,2608
2016-04-22T06:11:44.679Z,5544
2016-04-22T06:12:44.666Z,13128
2016-04-22T06:13:44.699Z,10752
2016-04-22T06:14:44.703Z,1720
2016-04-22T06:15:44.751Z,1444
2016-04-22T06:16:44.723Z,1428
2016-04-22T06:17:44.742Z,1408
2016-04-22T06:18:44.776Z,1412
2016-04-22T06:19:44.794Z,1460
2016-04-22T06:20:44.797Z,1592
2016-04-22T06:21:44.815Z,8208
2016-04-22T06:22:44.833Z,13708
2016-04-22T06:23:44.851Z,6984
2016-04-22T06:24:44.870Z,4108
2016-04-22T06:25:44.904Z,7512
2016-04-22T06:26:44.907Z,9500
2016-04-22T06:27:44.909Z,11088
2016-04-22T06:28:44.928Z,5468
2016-04-22T06:29:44.961Z,1668
2016-04-22T06:30:44.981Z,1876
2016-04-22T06:31:44.998Z,2524
2016-04-22T06:32:45.001Z,1644
2016-04-22T06:33:45.051Z,1684
2016-04-22T06:34:45.038Z,1764
2016-04-22T06:35:45.056Z,1852
2016-04-22T06:36:45.091Z,1888
2016-04-22T06:37:45.686Z,1736
2016-04-22T06:38:45.111Z,1564
2016-04-22T06:39:45.113Z,1476
2016-04-22T06:40:45.147Z,1392
2016-04-22T06:41:45.400Z,1816
2016-04-22T06:42:45.746Z,1892
2016-04-22T06:43:45.202Z,1868
2016-04-22T06:44:45.221Z,2204
2016-04-22T06:45:45.224Z,2416
2016-04-22T06:46:45.257Z,2284
2016-04-22T06:47:45.276Z,2272
2016-04-22T06:48:45.294Z,2416
2016-04-22T06:49:45.297Z,2732
2016-04-22T06:50:45.315Z,3204
2016-04-22T06:51:45.334Z,2756
2016-04-22T06:52:45.383Z,2644
2016-04-22T06:53:45.371Z,2772
2016-04-22T06:54:45.403Z,5320
2016-04-22T06:55:45.422Z,19904
2016-04-22T06:56:45.425Z,39360
2016-04-22T06:57:45.506Z,55680
2016-04-22T06:58:45.478Z,31488
2016-04-22T06:59:45.496Z,29504
2016-04-22T07:00:45.545Z,6772
2016-04-22T07:01:45.532Z,10300
2016-04-22T07:02:45.566Z,18528
2016-04-22T07:03:45.569Z,11860
2016-04-22T07:04:45.603Z,6056
2016-04-22T07:05:45.652Z,7684
2016-04-22T07:06:45.639Z,6836
2016-04-22T07:07:45.658Z,5136
2016-04-22T07:08:45.660Z,3956
2016-04-22T07:09:45.710Z,3512
2016-04-22T07:10:45.728Z,2968
2016-04-22T07:11:45.763Z,3072
2016-04-22T07:12:45.766Z,3108
2016-04-22T07:13:45.783Z,3172
2016-04-22T07:14:45.802Z,3608
2016-04-22T07:15:45.820Z,3236
2016-04-22T07:16:45.838Z,2828
2016-04-22T07:17:45.872Z,2692
2016-04-22T07:18:45.921Z,2768
2016-04-22T07:19:45.909Z,2888
2016-04-22T07:20:45.927Z,2932
2016-04-22T07:21:45.929Z,2928
2016-04-22T07:22:45.979Z,2980
2016-04-22T07:23:45.982Z,2916
2016-04-22T07:24:46.000Z,2896
2016-04-22T07:25:46.034Z,3020
2016-04-22T07:26:46.084Z,2940
2016-04-22T07:27:45.977Z,3292
2016-04-22T07:28:46.089Z,3652
2016-04-22T07:29:46.123Z,3104
2016-04-22T07:30:46.173Z,3532
2016-04-22T07:31:46.176Z,3196
2016-04-22T07:32:46.194Z,2680
2016-04-22T07:33:46.196Z,2636
2016-04-22T07:34:46.215Z,2552
2016-04-22T07:35:46.077Z,2640
2016-04-22T07:36:46.267Z,2732
2016-04-22T07:37:46.270Z,2872
2016-04-22T07:38:46.319Z,2924
2016-04-22T07:39:46.338Z,2824
2016-04-22T07:40:46.356Z,2660
2016-04-22T07:41:46.358Z,2544
2016-04-22T07:42:46.393Z,2484
2016-04-22T07:43:46.411Z,2612
2016-04-22T07:44:46.429Z,2724
2016-04-22T07:45:46.776Z,2812
2016-04-22T07:46:46.466Z,2712
2016-04-22T07:47:46.499Z,2608
2016-04-22T07:48:46.549Z,2632
2016-04-22T07:49:46.552Z,2452
2016-04-22T07:50:46.554Z,3540
2016-04-22T07:51:46.588Z,7544
2016-04-22T07:52:46.623Z,4304
2016-04-22T07:53:46.640Z,3008
2016-04-22T07:54:46.659Z,3016
2016-04-22T07:55:46.678Z,3108
2016-04-22T07:56:46.712Z,3060
2016-04-22T07:57:46.699Z,3108
2016-04-22T07:58:46.718Z,2984
2016-04-22T07:59:46.751Z,3260
2016-04-22T08:00:46.770Z,2772
2016-04-22T08:01:46.787Z,3540
2016-04-22T08:02:46.805Z,3696
2016-04-22T08:03:46.856Z,3184
2016-04-22T08:04:46.859Z,3420
2016-04-22T08:05:46.875Z,3040
2016-04-22T08:06:46.895Z,3344
2016-04-22T08:07:46.928Z,3416
2016-04-22T08:08:46.963Z,3472
2016-04-22T08:09:46.981Z,3548
2016-04-22T08:10:46.999Z,3144
2016-04-22T08:11:47.017Z,3212
2016-04-22T08:12:47.052Z,3700
2016-04-22T08:13:47.069Z,3348
2016-04-22T08:14:47.072Z,3348
2016-04-22T08:15:47.138Z,3284
2016-04-22T08:16:47.155Z,3448
2016-04-22T08:17:47.158Z,3292
2016-04-22T08:18:47.208Z,3096
2016-04-22T08:19:47.243Z,3716
2016-04-22T08:20:47.245Z,13920
2016-04-22T08:21:47.248Z,27872
2016-04-22T08:22:47.297Z,16320
2016-04-22T08:23:47.299Z,4900
2016-04-22T08:24:47.318Z,4024
2016-04-22T08:25:47.352Z,3504
2016-04-22T08:26:47.417Z,5068
2016-04-22T08:27:47.420Z,4468
2016-04-22T08:28:47.423Z,3248
2016-04-22T08:29:47.440Z,3052
2016-04-22T08:30:47.475Z,3040
2016-04-22T08:31:47.493Z,2952
2016-04-22T08:32:47.511Z,2748
2016-04-22T08:33:47.561Z,2640
2016-04-22T08:34:47.579Z,2612
2016-04-22T08:35:47.597Z,2324
2016-04-22T08:36:47.617Z,2324
2016-04-22T08:37:47.634Z,2336
2016-04-22T08:38:47.652Z,2416
2016-04-22T08:39:47.686Z,2448
2016-04-22T08:40:47.720Z,2712
2016-04-22T08:41:47.739Z,3132
2016-04-22T08:42:47.773Z,3072
2016-04-22T08:43:47.807Z,3112
2016-04-22T08:44:47.669Z,3324
2016-04-22T08:45:47.828Z,3472
2016-04-22T08:46:47.861Z,3124
2016-04-22T08:47:47.880Z,2684
2016-04-22T08:48:47.914Z,2644
2016-04-22T08:49:47.948Z,2604
2016-04-22T08:50:47.966Z,2548
2016-04-22T08:51:47.999Z,2564
2016-04-22T08:52:48.003Z,2560
2016-04-22T08:53:48.037Z,2524
2016-04-22T08:54:48.087Z,2516
2016-04-22T08:55:48.090Z,2500
2016-04-22T08:56:48.107Z,2500
2016-04-22T08:57:48.156Z,2604
2016-04-22T08:58:48.159Z,2588
2016-04-22T08:59:48.272Z,2652
2016-04-22T09:00:48.212Z,5008
2016-04-22T09:01:48.231Z,5752
2016-04-22T09:03:02.373Z,2796
2016-04-22T09:03:48.282Z,2536
2016-04-22T09:04:48.317Z,2420
2016-04-22T09:05:48.334Z,2352
2016-04-22T09:06:48.369Z,2292
2016-04-22T09:07:48.418Z,2240
2016-04-22T09:08:48.421Z,2320
2016-04-22T09:09:48.486Z,2356
2016-04-22T09:10:48.473Z,2388
2016-04-22T09:11:48.507Z,2512
2016-04-22T09:12:48.510Z,2544
2016-04-22T09:13:48.527Z,2592
2016-04-22T09:14:48.561Z,2572
2016-04-22T09:15:48.597Z,2572
2016-04-22T09:16:48.630Z,2580
2016-04-22T09:17:48.649Z,2588
2016-04-22T09:18:48.666Z,2592
2016-04-22T09:19:48.716Z,2584
2016-04-22T09:20:48.719Z,2500
2016-04-22T09:21:48.768Z,2456
2016-04-22T09:22:48.802Z,2388
2016-04-22T09:23:48.812Z,2364
2016-04-22T09:24:48.830Z,2420
2016-04-22T09:25:48.848Z,2432
2016-04-22T09:26:48.883Z,2496
2016-04-22T09:27:48.931Z,2608
2016-04-22T09:28:49.060Z,2532
2016-04-22T09:29:49.000Z,2572
2016-04-22T09:30:48.971Z,2628
2016-04-22T09:31:49.022Z,2480
2016-04-22T09:32:49.039Z,2372
2016-04-22T09:33:49.057Z,2376
2016-04-22T09:34:49.405Z,2224
2016-04-22T09:35:49.126Z,2184
2016-04-22T09:36:49.144Z,2212
2016-04-22T09:37:49.195Z,2220
2016-04-22T09:38:49.197Z,2212
2016-04-22T09:39:49.247Z,2224
2016-04-22T09:40:49.249Z,2244
2016-04-22T09:41:49.283Z,2256
2016-04-22T09:42:49.317Z,2260
2016-04-22T09:43:49.335Z,2240
2016-04-22T09:44:49.400Z,2192
2016-04-22T09:45:49.388Z,2148
2016-04-22T09:46:49.406Z,2108
2016-04-22T09:47:49.441Z,2072
2016-04-22T09:48:49.458Z,2056
2016-04-22T09:49:49.477Z,2052
2016-04-22T09:50:49.510Z,2064
2016-04-22T09:51:49.544Z,2048
2016-04-22T09:52:49.578Z,2020
2016-04-22T09:53:49.596Z,2008
2016-04-22T09:54:49.615Z,2004
2016-04-22T09:55:49.665Z,2016
2016-04-22T09:56:49.668Z,1936
2016-04-22T09:57:49.717Z,1916
2016-04-22T09:58:49.720Z,1920
2016-04-22T09:59:48.878Z,1932
2016-04-22T10:00:49.771Z,1964
2016-04-22T10:01:49.821Z,1996
2016-04-22T10:02:50.026Z,1992
2016-04-22T10:03:49.859Z,2028
2016-04-22T10:04:49.906Z,2564
2016-04-22T10:05:49.910Z,2160
2016-04-22T10:06:49.944Z,2064
2016-04-22T10:07:49.947Z,1996
2016-04-22T10:13:32.180Z,1836
2016-04-22T10:13:44.884Z,1832
2016-04-22T10:14:44.933Z,1852
2016-04-22T10:15:44.905Z,1872
2016-04-22T10:16:44.955Z,1872
2016-04-22T10:17:44.973Z,1880
2016-04-22T10:18:44.976Z,1920
2016-04-22T10:19:45.010Z,1932
2016-04-22T10:20:45.029Z,1972
2016-04-22T10:21:45.062Z,2068
2016-04-22T10:22:45.096Z,2484
2016-04-22T10:23:45.114Z,2100
2016-04-22T10:24:45.164Z,1964
2016-04-22T10:25:45.182Z,1788
2016-04-22T10:26:45.200Z,1736
2016-04-22T10:27:45.218Z,1724
2016-04-22T10:28:45.237Z,1728
2016-04-22T10:29:45.287Z,1748
2016-04-22T10:30:45.289Z,1672
2016-04-22T10:31:45.339Z,1656
2016-04-22T10:32:45.389Z,1652
2016-04-22T10:33:45.376Z,1652
2016-04-22T10:34:45.395Z,1644
2016-04-22T10:35:45.428Z,1640
2016-04-22T10:36:45.461Z,1640
2016-04-22T10:37:45.480Z,1628
2016-04-22T10:38:45.530Z,1620
2016-04-22T10:39:45.548Z,1624
2016-04-22T10:40:45.566Z,1644
2016-04-22T10:41:45.444Z,1712
2016-04-22T10:42:45.603Z,1724
2016-04-22T10:43:45.637Z,1812
2016-04-22T10:44:45.718Z,1764
2016-04-22T10:45:45.705Z,1748
2016-04-22T10:46:45.707Z,1752
2016-04-22T10:47:45.569Z,1792
2016-04-22T10:48:45.760Z,1760
2016-04-22T10:49:45.809Z,1828
2016-04-22T10:50:45.827Z,1916
2016-04-22T10:51:45.829Z,1920
2016-04-22T10:52:45.864Z,1848
2016-04-22T10:53:45.898Z,1924
2016-04-22T10:54:45.901Z,1868
2016-04-22T10:55:45.981Z,1932
2016-04-22T10:56:45.968Z,1960
2016-04-22T10:57:46.003Z,1932
2016-04-22T10:58:46.208Z,2840
2016-04-22T10:59:45.883Z,2060
2016-04-22T11:00:46.276Z,1956
2016-04-22T11:01:46.123Z,1892
2016-04-22T11:02:46.125Z,2236
2016-04-22T11:03:46.159Z,2112
2016-04-22T11:04:46.208Z,2424
2016-04-22T11:05:46.228Z,2940
2016-04-22T11:06:46.231Z,2668
2016-04-22T11:07:46.248Z,2364
2016-04-22T11:08:46.282Z,2424
2016-04-22T11:09:46.300Z,2220
2016-04-22T11:10:46.350Z,2604
2016-04-22T11:11:45.618Z,2480
2016-04-22T11:12:46.402Z,2500
2016-04-22T11:13:46.421Z,2356
2016-04-22T11:14:46.299Z,2688
2016-04-22T11:15:46.457Z,2692
2016-04-22T11:16:46.491Z,2688
2016-04-22T11:17:46.524Z,2564
2016-04-22T11:18:46.559Z,2532
2016-04-22T11:19:46.562Z,1840
2016-04-22T11:20:46.596Z,1972
2016-04-22T11:21:46.669Z,2116
2016-04-22T11:22:46.483Z,2352
2016-04-22T11:23:46.657Z,2012
2016-04-22T11:24:46.535Z,2184
2016-04-22T11:25:46.772Z,2336
2016-04-22T11:26:46.790Z,1720
2016-04-22T11:27:46.793Z,1892
2016-04-22T11:28:46.812Z,1928
2016-04-22T11:29:46.845Z,1988
2016-04-22T11:30:46.848Z,1856
2016-04-22T11:31:46.883Z,1704
2016-04-22T11:32:46.917Z,1760
2016-04-22T11:33:46.934Z,1928
2016-04-22T11:34:46.999Z,2008
2016-04-22T11:35:47.003Z,1792
2016-04-22T11:36:47.021Z,1916
2016-04-22T11:37:47.069Z,1844
2016-04-22T11:38:47.104Z,1820
2016-04-22T11:39:47.107Z,1820
2016-04-22T11:40:47.141Z,1972
2016-04-22T11:41:47.190Z,1956
2016-04-22T11:42:47.021Z,1908
2016-04-22T11:43:47.211Z,1988
2016-04-22T11:44:47.277Z,1932
2016-04-22T11:45:47.279Z,1868
2016-04-22T11:46:47.297Z,1852
2016-04-22T11:47:47.315Z,2124
2016-04-22T11:48:47.349Z,1912
2016-04-22T11:49:47.368Z,2100
2016-04-22T11:50:47.433Z,1832
2016-04-22T11:51:47.436Z,2148
2016-04-22T11:52:47.454Z,2120
2016-04-22T11:53:47.504Z,2116
2016-04-22T11:54:47.522Z,2324
2016-04-22T11:55:48.009Z,2260
2016-04-22T11:56:47.589Z,2280
2016-04-22T11:57:46.859Z,2240
2016-04-22T11:58:47.658Z,2252
2016-04-22T11:59:47.661Z,1596
2016-04-22T12:00:47.711Z,2160
2016-04-22T12:01:47.728Z,1436
2016-04-22T12:02:47.747Z,2160
2016-04-22T12:03:47.765Z,1340
2016-04-22T12:04:47.799Z,1120
2016-04-22T12:05:47.833Z,1084
2016-04-22T12:06:47.867Z,1068
2016-04-22T12:07:47.947Z,1092
2016-04-22T12:08:47.935Z,2116
2016-04-22T12:09:47.938Z,1128
2016-04-22T12:10:48.080Z,1048
2016-04-22T12:11:48.005Z,2068
2016-04-22T12:12:48.023Z,968
2016-04-22T12:13:48.057Z,920
2016-04-22T12:14:47.326Z,1400
2016-04-22T12:15:48.157Z,1364
2016-04-22T12:16:48.269Z,2052
2016-04-22T12:17:48.288Z,916
2016-04-22T12:18:48.196Z,964
2016-04-22T12:19:48.388Z,904
2016-04-22T12:20:48.359Z,2008
2016-04-22T12:21:48.269Z,1712
2016-04-22T12:23:02.428Z,1824
2016-04-22T12:23:47.742Z,1872
2016-04-22T12:24:48.386Z,1952
2016-04-22T12:25:48.372Z,1952
2016-04-22T12:26:48.422Z,1940
2016-04-22T12:27:48.441Z,1968
2016-04-22T12:28:48.475Z,1896
2016-04-22T12:29:48.494Z,1852
2016-04-22T12:30:48.527Z,1876
2016-04-22T12:31:48.546Z,1832
2016-04-22T12:32:48.610Z,1796
2016-04-22T12:33:48.613Z,1016
2016-04-22T12:34:48.647Z,1560
2016-04-22T12:35:48.666Z,1644
2016-04-22T12:36:49.060Z,1868
2016-04-22T12:37:48.718Z,1852
2016-04-22T12:38:48.580Z,1884
2016-04-22T12:39:48.802Z,1884
2016-04-22T12:40:48.804Z,1884
2016-04-22T12:41:48.854Z,1864
2016-04-22T12:42:48.856Z,1804
2016-04-22T12:43:48.906Z,1792
2016-04-22T12:44:48.909Z,1812
2016-04-22T12:45:48.942Z,1816
2016-04-22T12:46:48.976Z,1808
2016-04-22T12:47:49.025Z,1824
2016-04-22T12:48:49.059Z,1828
2016-04-22T12:49:49.047Z,1820
2016-04-22T12:50:49.081Z,1812
2016-04-22T12:51:49.114Z,1776
2016-04-22T12:52:49.149Z,1764
2016-04-22T12:53:49.167Z,1760
2016-04-22T12:54:49.185Z,1748
2016-04-22T12:55:49.219Z,1744
2016-04-22T12:56:49.253Z,1776
2016-04-22T12:57:49.287Z,1772
2016-04-22T12:58:49.306Z,1756
2016-04-22T12:59:49.325Z,1760
2016-04-22T13:00:49.358Z,1760
2016-04-22T13:01:49.391Z,1764
2016-04-22T13:02:49.425Z,1732
2016-04-22T13:03:49.475Z,1708
2016-04-22T13:04:49.478Z,1744
2016-04-22T13:05:49.501Z,1744
2016-04-22T13:06:49.535Z,1696
2016-04-22T13:07:49.554Z,1648
2016-04-22T13:08:49.790Z,1740
2016-04-22T13:09:49.621Z,1772
2016-04-22T13:10:49.687Z,1788
2016-04-22T13:11:49.690Z,1792
2016-04-22T13:12:49.707Z,1792
2016-04-22T13:13:49.757Z,1740
2016-04-22T13:14:49.760Z,1736
2016-04-22T13:15:49.794Z,1720
2016-04-22T13:16:49.828Z,1772
2016-04-22T13:17:49.725Z,1732
2016-04-22T13:18:49.901Z,1756
2016-04-22T13:19:49.919Z,1732
2016-04-22T13:20:49.952Z,1680
2016-04-22T13:21:49.960Z,1188
2016-04-22T13:22:49.994Z,736
2016-04-22T13:23:50.028Z,752
2016-04-22T13:24:50.046Z,1132
2016-04-22T13:25:50.080Z,884
2016-04-22T13:26:50.130Z,1664
2016-04-22T13:27:50.149Z,784
2016-04-22T13:28:50.202Z,820
2016-04-22T13:29:50.248Z,772
2016-04-22T13:30:50.342Z,824
2016-04-22T13:31:50.403Z,1624
2016-04-22T13:32:50.464Z,1672
2016-04-22T13:33:50.544Z,1524
2016-04-22T13:34:50.578Z,1452
2016-04-22T13:35:50.659Z,1480
2016-04-22T13:36:50.693Z,1580
2016-04-22T13:37:50.695Z,1628
2016-04-22T13:38:50.740Z,1660
2016-04-22T13:39:50.763Z,1604
2016-04-22T13:40:50.804Z,1580
2016-04-22T13:41:50.859Z,1544
2016-04-22T13:42:50.883Z,1560
2016-04-22T13:43:50.921Z,1588
2016-04-22T13:44:50.973Z,1600
2016-04-22T13:45:50.977Z,1560
2016-04-22T13:46:51.013Z,1608
2016-04-22T13:47:51.034Z,1632
2016-04-22T13:48:51.068Z,1632
2016-04-22T13:49:51.087Z,1608
2016-04-22T13:50:51.137Z,1596